Bright Ocean — HOGQ — position and weather

sailwx.info

Track history (hours):
 
Tides and Currents Weather Stations Pressure Air Temp Water Temp Dewpoint Dewpoint Depression Visibility Wind Speed Wind Dir Waves Ship Positions

Bright Ocean

Last reported at 2014-Oct-17 21:25 UTC. Time now 2014-Dec-21 23:58 UTC.
Position N 29°52' E 123°36'.
Warning: this ship's position is months out of date.

Length 178 m; draft 10.3 m.

Type: Cargo ship. MMSI: 373816000.

Date/timePositionNaut miles runAvg speedWind from/ knotsBaromVisibWave heightAir tempDewpointWater temp
2014-Oct-17 21:25N 29°52' E 123°36'1011.4
2014-Oct-17 20:31N 30°02' E 123°38'1111.6
2014-Oct-17 19:33N 30°13' E 123°39'3510.5
2014-Oct-17 16:13N 30°46' E 123°25'8510.9
2014-Oct-17 08:21N 31°16' E 121°52'911.0
2014-Oct-17 07:33N 31°19' E 121°43'9 9.0
2014-Oct-17 06:33N 31°24' E 121°33'10 9.9
2014-Oct-17 05:33N 31°30' E 121°25'1312.6
2014-Oct-17 04:32N 31°39' E 121°13'1212.7
2014-Oct-17 03:33N 31°46' E 121°02'5 3.8
2014-Oct-17 02:18N 31°49' E 120°57'0 0.0
2014-Oct-17 01:12N 31°49' E 120°57'0 0.0
2014-Oct-17 00:15N 31°49' E 120°57'0 0.0
2014-Oct-16 21:24N 31°49' E 120°57'0 0.0
2014-Oct-16 20:27N 31°49' E 120°57'0 0.0
2014-Oct-16 19:21N 31°49' E 120°57'0 0.0
2014-Oct-16 18:33N 31°49' E 120°57'0 0.0
2014-Oct-16 17:33N 31°49' E 120°57'0 0.0
2014-Oct-16 16:30N 31°49' E 120°57'0 0.0
2014-Oct-16 15:33N 31°49' E 120°57'0 0.0
2014-Oct-16 14:30N 31°49' E 120°57'0 0.0
2014-Oct-16 13:30N 31°49' E 120°57'0 0.0
2014-Oct-16 12:30N 31°49' E 120°57'0 0.0
2014-Oct-16 11:30N 31°49' E 120°57'0 0.0
2014-Oct-16 10:24N 31°49' E 120°57'0 0.0
2014-Oct-16 09:30N 31°49' E 120°57'0 0.0
2014-Oct-16 08:30N 31°49' E 120°57'0 0.0
2014-Oct-16 07:30N 31°49' E 120°57'0 0.0
2014-Oct-16 06:27N 31°49' E 120°57'0 0.0
2014-Oct-16 05:12N 31°49' E 120°57'0 0.0
2014-Oct-16 04:30N 31°49' E 120°57'0 0.0
2014-Oct-16 03:27N 31°49' E 120°57'0 0.0
2014-Oct-16 02:30N 31°49' E 120°57'0 0.0
2014-Oct-16 01:30N 31°49' E 120°57'0 0.0
2014-Oct-16 00:24N 31°49' E 120°57'0 0.0
2014-Oct-15 23:24N 31°49' E 120°57'0 0.0
2014-Oct-15 22:33N 31°49' E 120°57'0 0.0
2014-Oct-15 21:27N 31°49' E 120°57'0 0.0
2014-Oct-15 20:30N 31°49' E 120°57'0 0.0
2014-Oct-15 19:33N 31°49' E 120°57'0 0.0
2014-Oct-15 18:33N 31°49' E 120°57'0 0.0
2014-Oct-15 17:33N 31°49' E 120°57'0 0.0
2014-Oct-15 16:30N 31°49' E 120°57'0 0.0
2014-Oct-15 15:24N 31°49' E 120°57'0 0.0
2014-Oct-15 14:33N 31°49' E 120°57'0 0.0
2014-Oct-15 13:30N 31°49' E 120°57'0 0.0
2014-Oct-15 12:30N 31°49' E 120°57'0 0.0
2014-Oct-15 11:27N 31°49' E 120°57'0 0.0
2014-Oct-15 10:33N 31°49' E 120°57'0 0.0
2014-Oct-15 09:33N 31°49' E 120°57'0 0.0
2014-Oct-15 08:30N 31°49' E 120°57'0 0.1
2014-Oct-15 07:23N 31°49' E 120°57'1 1.6
2014-Oct-15 06:33N 31°48' E 120°55'7 6.7
2014-Oct-15 05:34N 31°55' E 120°53'0 0.0
2014-Oct-15 04:24N 31°55' E 120°53'0 0.0
2014-Oct-15 03:33N 31°55' E 120°53'0 0.1
2014-Oct-15 02:30N 31°55' E 120°53'0 0.0
2014-Oct-15 01:30N 31°55' E 120°53'0 0.0
2014-Oct-15 00:33N 31°55' E 120°53'0 0.1
2014-Oct-14 23:34N 31°55' E 120°53'0 0.0
2014-Oct-14 22:31N 31°55' E 120°53'0 0.0
2014-Oct-14 21:34N 31°55' E 120°53'0 0.1
2014-Oct-14 20:34N 31°55' E 120°53'0 0.0
2014-Oct-14 19:34N 31°55' E 120°53'0 0.0
2014-Oct-14 18:30N 31°55' E 120°53'0 0.0
2014-Oct-14 17:31N 31°55' E 120°53'0 0.0
2014-Oct-14 16:27N 31°55' E 120°53'0 0.0
2014-Oct-14 15:33N 31°55' E 120°53'0 0.0
2014-Oct-14 14:31N 31°55' E 120°53'0 0.0
2014-Oct-14 13:33N 31°55' E 120°53'0 0.0
2014-Oct-14 12:31N 31°55' E 120°53'7 7.4
2014-Oct-14 11:33N 31°48' E 120°56'1212.2
2014-Oct-14 10:33N 31°42' E 121°08'1313.0
2014-Oct-14 09:33N 31°34' E 121°19'1211.8
2014-Oct-14 08:33N 31°26' E 121°30'6 6.4
2014-Oct-14 07:33N 31°23' E 121°36'9 9.1
2014-Oct-14 06:33N 31°17' E 121°45'2712.6
2014-Oct-14 04:25N 31°03' E 122°12'10 8.9
2014-Oct-14 03:15N 31°02' E 122°24'6 8.9
2014-Oct-14 02:33N 30°59' E 122°30'6 0.3
2014-Oct-13 05:24N 31°01' E 122°36'0 0.2
2014-Oct-13 03:04N 31°01' E 122°36'2 2.9
2014-Oct-13 02:29N 30°60' E 122°36'5 5.0
2014-Oct-13 01:29N 30°57' E 122°41'1010.2
2014-Oct-13 00:33N 31°04' E 122°49'  
2014-Oct-09 13:10N 31°02' E 122°38'  
Track history (hours):
 
Tides and Currents Weather Stations Pressure Air Temp Water Temp Dewpoint Dewpoint Depression Visibility Wind Speed Wind Dir Waves Ship Positions

Bright Ocean

Last reported at 2014-Oct-17 21:25 UTC. Time now 2014-Dec-21 23:58 UTC.
Position N 29°52' E 123°36'.
Warning: this ship's position is months out of date.

Length 178 m; draft 10.3 m.

Type: Cargo ship. MMSI: 373816000.

Date/timePositionNaut miles runAvg speedWind from/ knotsBaromVisibWave heightAir tempDewpointWater temp
2014-Oct-17 21:25N 29°52' E 123°36'1011.4
2014-Oct-17 20:31N 30°02' E 123°38'1111.6
2014-Oct-17 19:33N 30°13' E 123°39'3510.5
2014-Oct-17 16:13N 30°46' E 123°25'8510.9
2014-Oct-17 08:21N 31°16' E 121°52'911.0
2014-Oct-17 07:33N 31°19' E 121°43'9 9.0
2014-Oct-17 06:33N 31°24' E 121°33'10 9.9
2014-Oct-17 05:33N 31°30' E 121°25'1312.6
2014-Oct-17 04:32N 31°39' E 121°13'1212.7
2014-Oct-17 03:33N 31°46' E 121°02'5 3.8
2014-Oct-17 02:18N 31°49' E 120°57'0 0.0
2014-Oct-17 01:12N 31°49' E 120°57'0 0.0
2014-Oct-17 00:15N 31°49' E 120°57'0 0.0
2014-Oct-16 21:24N 31°49' E 120°57'0 0.0
2014-Oct-16 20:27N 31°49' E 120°57'0 0.0
2014-Oct-16 19:21N 31°49' E 120°57'0 0.0
2014-Oct-16 18:33N 31°49' E 120°57'0 0.0
2014-Oct-16 17:33N 31°49' E 120°57'0 0.0
2014-Oct-16 16:30N 31°49' E 120°57'0 0.0
2014-Oct-16 15:33N 31°49' E 120°57'0 0.0
2014-Oct-16 14:30N 31°49' E 120°57'0 0.0
2014-Oct-16 13:30N 31°49' E 120°57'0 0.0
2014-Oct-16 12:30N 31°49' E 120°57'0 0.0
2014-Oct-16 11:30N 31°49' E 120°57'0 0.0
2014-Oct-16 10:24N 31°49' E 120°57'0 0.0
2014-Oct-16 09:30N 31°49' E 120°57'0 0.0
2014-Oct-16 08:30N 31°49' E 120°57'0 0.0
2014-Oct-16 07:30N 31°49' E 120°57'0 0.0
2014-Oct-16 06:27N 31°49' E 120°57'0 0.0
2014-Oct-16 05:12N 31°49' E 120°57'0 0.0
2014-Oct-16 04:30N 31°49' E 120°57'0 0.0
2014-Oct-16 03:27N 31°49' E 120°57'0 0.0
2014-Oct-16 02:30N 31°49' E 120°57'0 0.0
2014-Oct-16 01:30N 31°49' E 120°57'0 0.0
2014-Oct-16 00:24N 31°49' E 120°57'0 0.0
2014-Oct-15 23:24N 31°49' E 120°57'0 0.0
2014-Oct-15 22:33N 31°49' E 120°57'0 0.0
2014-Oct-15 21:27N 31°49' E 120°57'0 0.0
2014-Oct-15 20:30N 31°49' E 120°57'0 0.0
2014-Oct-15 19:33N 31°49' E 120°57'0 0.0
2014-Oct-15 18:33N 31°49' E 120°57'0 0.0
2014-Oct-15 17:33N 31°49' E 120°57'0 0.0
2014-Oct-15 16:30N 31°49' E 120°57'0 0.0
2014-Oct-15 15:24N 31°49' E 120°57'0 0.0
2014-Oct-15 14:33N 31°49' E 120°57'0 0.0
2014-Oct-15 13:30N 31°49' E 120°57'0 0.0
2014-Oct-15 12:30N 31°49' E 120°57'0 0.0
2014-Oct-15 11:27N 31°49' E 120°57'0 0.0
2014-Oct-15 10:33N 31°49' E 120°57'0 0.0
2014-Oct-15 09:33N 31°49' E 120°57'0 0.0
2014-Oct-15 08:30N 31°49' E 120°57'0 0.1
2014-Oct-15 07:23N 31°49' E 120°57'1 1.6
2014-Oct-15 06:33N 31°48' E 120°55'7 6.7
2014-Oct-15 05:34N 31°55' E 120°53'0 0.0
2014-Oct-15 04:24N 31°55' E 120°53'0 0.0
2014-Oct-15 03:33N 31°55' E 120°53'0 0.1
2014-Oct-15 02:30N 31°55' E 120°53'0 0.0
2014-Oct-15 01:30N 31°55' E 120°53'0 0.0
2014-Oct-15 00:33N 31°55' E 120°53'0 0.1
2014-Oct-14 23:34N 31°55' E 120°53'0 0.0
2014-Oct-14 22:31N 31°55' E 120°53'0 0.0
2014-Oct-14 21:34N 31°55' E 120°53'0 0.1
2014-Oct-14 20:34N 31°55' E 120°53'0 0.0
2014-Oct-14 19:34N 31°55' E 120°53'0 0.0
2014-Oct-14 18:30N 31°55' E 120°53'0 0.0
2014-Oct-14 17:31N 31°55' E 120°53'0 0.0
2014-Oct-14 16:27N 31°55' E 120°53'0 0.0
2014-Oct-14 15:33N 31°55' E 120°53'0 0.0
2014-Oct-14 14:31N 31°55' E 120°53'0 0.0
2014-Oct-14 13:33N 31°55' E 120°53'0 0.0
2014-Oct-14 12:31N 31°55' E 120°53'7 7.4
2014-Oct-14 11:33N 31°48' E 120°56'1212.2
2014-Oct-14 10:33N 31°42' E 121°08'1313.0
2014-Oct-14 09:33N 31°34' E 121°19'1211.8
2014-Oct-14 08:33N 31°26' E 121°30'6 6.4
2014-Oct-14 07:33N 31°23' E 121°36'9 9.1
2014-Oct-14 06:33N 31°17' E 121°45'2712.6
2014-Oct-14 04:25N 31°03' E 122°12'10 8.9
2014-Oct-14 03:15N 31°02' E 122°24'6 8.9
2014-Oct-14 02:33N 30°59' E 122°30'6 0.3
2014-Oct-13 05:24N 31°01' E 122°36'0 0.2
2014-Oct-13 03:04N 31°01' E 122°36'2 2.9
2014-Oct-13 02:29N 30°60' E 122°36'5 5.0
2014-Oct-13 01:29N 30°57' E 122°41'1010.2
2014-Oct-13 00:33N 31°04' E 122°49'  
2014-Oct-09 13:10N 31°02' E 122°38'  

Dump ship's entire track history